createdAt,value
2024-03-01T00:00:35.266Z,583.59
2024-03-01T00:03:42.650Z,585.25
2024-03-01T00:06:51.026Z,583.56
2024-03-01T00:10:01.014Z,600.96
2024-03-01T00:13:09.107Z,619.36
2024-03-01T00:16:16.647Z,620.72
2024-03-01T00:19:24.720Z,627.50
2024-03-01T00:22:32.010Z,624.34
2024-03-01T00:25:42.843Z,602.13
2024-03-01T00:28:50.239Z,607.52
2024-03-01T00:31:58.282Z,597.36
2024-03-01T00:35:05.525Z,594.69
2024-03-01T00:38:13.643Z,598.35
2024-03-01T00:41:23.462Z,594.12
2024-03-01T00:44:31.521Z,593.76
2024-03-01T00:47:39.314Z,591.89
2024-03-01T00:50:47.722Z,591.77
2024-03-01T00:53:55.068Z,587.16
2024-03-01T00:57:05.724Z,601.18
2024-03-01T01:00:15.195Z,599.73
2024-03-01T01:03:23.193Z,586.25
2024-03-01T01:06:30.355Z,575.79
2024-03-01T01:09:38.368Z,571.26
2024-03-01T01:12:48.187Z,564.28
2024-03-01T01:15:56.662Z,570.47
2024-03-01T01:19:04.440Z,573.89
2024-03-01T01:22:12.791Z,563.12
2024-03-01T01:25:20.470Z,568.36
2024-03-01T01:28:31.312Z,569.13
2024-03-01T01:31:38.648Z,559.04
2024-03-01T01:34:46.778Z,563.32
2024-03-01T01:37:54.112Z,558.47
2024-03-01T01:41:02.247Z,572.92
2024-03-01T01:44:12.168Z,569.88
2024-03-01T01:47:20.405Z,581.95
2024-03-01T01:50:29.157Z,583.68
2024-03-01T01:53:38.794Z,577.28
2024-03-01T01:56:47.354Z,582.34
2024-03-01T01:59:59.949Z,574.37
2024-03-01T02:03:09.082Z,575.55
2024-03-01T02:06:17.162Z,577.13
2024-03-01T02:09:24.688Z,572.39
2024-03-01T02:12:32.827Z,562.50
2024-03-01T02:15:42.722Z,550.93
2024-03-01T02:18:52.477Z,556.52
2024-03-01T02:22:16.160Z,556.27
2024-03-01T02:25:27.208Z,554.21
2024-03-01T02:28:34.831Z,548.76
2024-03-01T02:31:42.824Z,556.86
2024-03-01T02:34:50.282Z,543.44
2024-03-01T02:37:58.361Z,530.84
2024-03-01T02:41:08.947Z,525.30
2024-03-01T02:44:17.466Z,536.71
2024-03-01T02:47:27.079Z,519.09
2024-03-01T02:50:35.131Z,511.16
2024-03-01T02:53:43.044Z,515.97
2024-03-01T02:56:52.822Z,514.88
2024-03-01T03:00:01.555Z,526.78
2024-03-01T03:03:08.984Z,515.17
2024-03-01T03:06:17.040Z,517.01
2024-03-01T03:09:24.207Z,508.35
2024-03-01T03:12:35.718Z,508.64
2024-03-01T03:15:43.500Z,512.31
2024-03-01T03:18:51.529Z,511.06
2024-03-01T03:21:58.758Z,513.15
2024-03-01T03:25:07.195Z,526.78
2024-03-01T03:28:21.350Z,504.97
2024-03-01T03:31:29.537Z,555.57
2024-03-01T03:34:37.329Z,503.44
2024-03-01T03:37:45.474Z,492.76
2024-03-01T03:40:52.719Z,507.32
2024-03-01T03:44:03.370Z,507.93
2024-03-01T03:47:11.112Z,494.54
2024-03-01T03:50:19.106Z,488.42
2024-03-01T03:53:26.297Z,483.97
2024-03-01T03:56:34.554Z,485.97
2024-03-01T03:59:47.218Z,503.41
2024-03-01T04:02:55.283Z,530.65
2024-03-01T04:06:02.514Z,528.18
2024-03-01T04:09:11.600Z,521.75
2024-03-01T04:12:18.752Z,520.80
2024-03-01T04:15:29.400Z,519.16
2024-03-01T04:18:37.391Z,522.37
2024-03-01T04:21:45.591Z,530.50
2024-03-01T04:24:55.912Z,542.97
2024-03-01T04:28:04.002Z,569.25
2024-03-01T04:31:13.847Z,580.36
2024-03-01T04:34:23.000Z,576.46
2024-03-01T04:37:30.254Z,609.30
2024-03-01T04:40:39.134Z,612.98
2024-03-01T04:43:46.725Z,613.28
2024-03-01T04:46:57.763Z,624.77
2024-03-01T04:50:06.537Z,676.37
2024-03-01T04:53:14.565Z,637.61
2024-03-01T04:56:21.825Z,622.03
2024-03-01T04:59:29.850Z,633.60
2024-03-01T05:02:39.721Z,614.61
2024-03-01T05:05:48.051Z,638.17
2024-03-01T05:08:55.234Z,643.74
2024-03-01T05:12:03.401Z,647.64
2024-03-01T05:15:13.762Z,619.20
2024-03-01T05:18:24.612Z,620.41
2024-03-01T05:21:31.936Z,609.82
2024-03-01T05:24:39.994Z,618.97
2024-03-01T05:27:49.761Z,625.80
2024-03-01T05:31:06.849Z,633.29
2024-03-01T05:34:24.258Z,650.59
2024-03-01T05:37:32.324Z,650.75
2024-03-01T05:40:46.944Z,664.94
2024-03-01T05:43:59.952Z,675.10
2024-03-01T05:47:07.641Z,708.97
2024-03-01T05:50:19.486Z,731.44
2024-03-01T05:53:27.719Z,713.22
2024-03-01T05:56:35.935Z,689.24
2024-03-01T05:59:43.123Z,661.99
2024-03-01T06:02:54.635Z,687.03
2024-03-01T06:06:06.196Z,701.55
2024-03-01T06:09:14.381Z,720.72
2024-03-01T06:12:21.665Z,732.79
2024-03-01T06:15:30.438Z,727.24
2024-03-01T06:18:37.968Z,709.64
2024-03-01T06:21:48.753Z,724.29
2024-03-01T06:24:56.047Z,704.96
2024-03-01T06:28:04.376Z,700.45
2024-03-01T06:31:11.787Z,677.17
2024-03-01T06:34:20.066Z,687.66
2024-03-01T06:37:29.994Z,602.83
2024-03-01T06:40:39.518Z,636.87
2024-03-01T06:43:46.926Z,691.63
2024-03-01T06:46:55.264Z,635.25
2024-03-01T06:50:02.696Z,637.33
2024-03-01T06:53:13.535Z,639.76
2024-03-01T06:56:20.960Z,699.91
2024-03-01T06:59:28.973Z,660.43
2024-03-01T07:02:36.336Z,613.22
2024-03-01T07:05:44.556Z,599.66
2024-03-01T07:08:54.593Z,567.95
2024-03-01T07:12:02.733Z,556.26
2024-03-01T07:15:12.161Z,549.44
2024-03-01T07:18:20.328Z,546.39
2024-03-01T07:21:27.557Z,555.53
2024-03-01T07:24:38.314Z,578.20
2024-03-01T07:27:45.525Z,593.04
2024-03-01T07:30:53.690Z,622.79
2024-03-01T07:34:01.368Z,541.81
2024-03-01T07:37:09.922Z,582.32
2024-03-01T07:40:20.305Z,615.28
2024-03-01T07:43:28.501Z,557.17
2024-03-01T07:46:36.957Z,543.80
2024-03-01T07:49:45.762Z,540.32
2024-03-01T07:52:53.003Z,572.98
2024-03-01T07:56:04.038Z,648.52
2024-03-01T07:59:12.477Z,562.99
2024-03-01T08:02:20.579Z,593.22
2024-03-01T08:05:27.827Z,637.50
2024-03-01T08:08:48.474Z,610.08
2024-03-01T08:11:58.844Z,559.94
2024-03-01T08:15:29.853Z,546.23
2024-03-01T08:18:42.470Z,550.33
2024-03-01T08:21:52.277Z,550.84
2024-03-01T08:25:01.964Z,581.90
2024-03-01T08:28:15.455Z,594.00
2024-03-01T08:31:30.649Z,572.20
2024-03-01T08:34:51.588Z,566.18
2024-03-01T08:37:58.824Z,555.32
2024-03-01T08:41:07.389Z,565.86
2024-03-01T08:45:00.843Z,630.00
2024-03-01T08:48:20.659Z,650.03
2024-03-01T08:51:29.203Z,645.00
2024-03-01T08:54:37.216Z,622.98
2024-03-01T08:57:44.814Z,655.67
2024-03-01T09:00:58.811Z,615.29
2024-03-01T09:04:17.372Z,630.31
2024-03-01T09:07:31.057Z,609.46
2024-03-01T09:10:39.611Z,592.82
2024-03-01T09:13:47.989Z,598.29
2024-03-01T09:16:58.035Z,605.91
2024-03-01T09:20:22.257Z,613.54
2024-03-01T09:23:29.674Z,676.58
2024-03-01T09:26:38.377Z,704.38
2024-03-01T09:29:48.388Z,665.17
2024-03-01T09:32:59.321Z,593.05
2024-03-01T09:36:09.268Z,554.97
2024-03-01T09:39:17.533Z,552.83
2024-03-01T09:42:50.756Z,547.74
2024-03-01T09:46:06.471Z,537.68
2024-03-01T09:49:43.188Z,529.10
2024-03-01T09:53:13.885Z,504.05
2024-03-01T09:56:36.271Z,495.92
2024-03-01T09:59:55.754Z,476.24
2024-03-01T10:03:21.950Z,438.32
2024-03-01T10:07:00.934Z,451.13
2024-03-01T10:10:44.130Z,447.94
2024-03-01T10:14:13.620Z,453.93
2024-03-01T10:17:46.966Z,442.60
2024-03-01T10:21:11.262Z,448.57
2024-03-01T10:24:44.557Z,447.60
2024-03-01T10:28:04.284Z,433.56
2024-03-01T10:31:31.817Z,431.23
2024-03-01T10:35:01.378Z,424.45
2024-03-01T10:38:20.388Z,418.45
2024-03-01T10:41:50.602Z,424.62
2024-03-01T10:45:12.980Z,407.64
2024-03-01T10:48:21.244Z,420.47
2024-03-01T10:51:36.991Z,425.15
2024-03-01T10:54:54.787Z,443.54
2024-03-01T10:58:26.656Z,449.29
2024-03-01T11:01:43.824Z,422.11
2024-03-01T11:05:09.049Z,396.79
2024-03-01T11:08:34.912Z,415.34
2024-03-01T11:11:59.308Z,426.84
2024-03-01T11:15:19.427Z,414.59
2024-03-01T11:18:34.530Z,419.22
2024-03-01T11:21:52.098Z,421.27
2024-03-01T11:25:11.407Z,396.00
2024-03-01T11:28:27.226Z,396.42
2024-03-01T11:31:45.559Z,401.50
2024-03-01T11:35:10.954Z,414.75
2024-03-01T11:38:36.138Z,418.94
2024-03-01T11:42:00.337Z,436.01
2024-03-01T11:45:21.384Z,434.12
2024-03-01T11:48:57.473Z,430.59
2024-03-01T11:52:34.924Z,445.28
2024-03-01T11:56:26.810Z,448.91
2024-03-01T12:00:26.786Z,459.21
2024-03-01T12:04:15.524Z,492.07
2024-03-01T12:07:52.413Z,491.95
2024-03-01T12:11:26.807Z,518.12
2024-03-01T12:14:43.752Z,506.65
2024-03-01T12:18:12.738Z,528.18
2024-03-01T12:21:40.401Z,523.58
2024-03-01T12:24:51.560Z,559.93
2024-03-01T12:28:30.169Z,565.51
2024-03-01T12:31:58.184Z,530.72
2024-03-01T12:35:27.949Z,507.98
2024-03-01T12:38:47.232Z,459.39
2024-03-01T12:42:11.506Z,461.27
2024-03-01T12:45:44.377Z,461.64
2024-03-01T12:49:17.527Z,460.52
2024-03-01T12:52:57.318Z,451.57
2024-03-01T12:56:29.441Z,435.46
2024-03-01T12:59:49.949Z,437.82
2024-03-01T13:03:14.542Z,429.83
2024-03-01T13:06:28.692Z,432.38
2024-03-01T13:09:48.085Z,436.45
2024-03-01T13:13:03.605Z,436.24
2024-03-01T13:16:19.734Z,456.41
2024-03-01T13:19:44.881Z,481.41
2024-03-01T13:23:11.594Z,467.93
2024-03-01T13:26:35.759Z,457.73
2024-03-01T13:29:52.021Z,465.03
2024-03-01T13:33:19.962Z,443.36
2024-03-01T13:36:33.417Z,470.35
2024-03-01T13:39:49.498Z,460.86
2024-03-01T13:43:07.518Z,461.64
2024-03-01T13:46:29.159Z,470.04
2024-03-01T13:49:43.246Z,473.07
2024-03-01T13:52:52.445Z,451.04
2024-03-01T13:56:02.445Z,458.40
2024-03-01T13:59:12.014Z,469.76
2024-03-01T14:02:21.958Z,474.05
2024-03-01T14:05:33.022Z,488.85
2024-03-01T14:08:41.364Z,485.25
2024-03-01T14:11:49.677Z,480.76
2024-03-01T14:14:56.912Z,492.71
2024-03-01T14:18:09.459Z,492.53
2024-03-01T14:21:18.426Z,499.02
2024-03-01T14:24:26.976Z,509.13
2024-03-01T14:27:34.527Z,498.51
2024-03-01T14:30:45.973Z,481.61
2024-03-01T14:34:08.692Z,481.38
2024-03-01T14:37:29.931Z,481.22
2024-03-01T14:40:37.910Z,497.94
2024-03-01T14:43:48.254Z,508.24
2024-03-01T14:46:55.524Z,499.15
2024-03-01T14:50:08.033Z,506.08
2024-03-01T14:53:37.390Z,512.22
2024-03-01T14:56:45.592Z,548.32
2024-03-01T14:59:52.855Z,545.34
2024-03-01T15:03:00.825Z,531.78
2024-03-01T15:06:10.878Z,500.69
2024-03-01T15:09:20.143Z,522.86
2024-03-01T15:12:27.385Z,542.19
2024-03-01T15:15:35.868Z,559.81
2024-03-01T15:18:45.268Z,632.56
2024-03-01T15:21:55.946Z,729.68
2024-03-01T15:25:12.255Z,622.92
2024-03-01T15:28:20.559Z,541.66
2024-03-01T15:31:28.124Z,520.10
2024-03-01T15:34:36.401Z,494.29
2024-03-01T15:37:46.322Z,485.54
2024-03-01T15:40:57.281Z,469.23
2024-03-01T15:44:04.484Z,473.34
2024-03-01T15:47:12.558Z,477.44
2024-03-01T15:50:20.248Z,481.61
2024-03-01T15:53:30.949Z,499.80
2024-03-01T15:56:38.454Z,514.29
2024-03-01T15:59:46.861Z,517.50
2024-03-01T16:02:54.489Z,524.07
2024-03-01T16:06:04.350Z,515.34
2024-03-01T16:09:16.624Z,529.08
2024-03-01T16:12:27.455Z,530.16
2024-03-01T16:15:35.236Z,529.33
2024-03-01T16:18:46.438Z,529.98
2024-03-01T16:21:56.589Z,542.85
2024-03-01T16:25:09.970Z,539.47
2024-03-01T16:28:28.413Z,554.91
2024-03-01T16:31:36.872Z,561.78
2024-03-01T16:34:44.436Z,568.65
2024-03-01T16:37:54.391Z,576.41
2024-03-01T16:41:08.785Z,577.33
2024-03-01T16:44:44.123Z,568.11
2024-03-01T16:47:51.872Z,577.36
2024-03-01T16:51:00.350Z,577.37
2024-03-01T16:54:22.328Z,610.42
2024-03-01T16:57:36.050Z,676.54
2024-03-01T17:00:43.493Z,686.80
2024-03-01T17:03:55.065Z,704.90
2024-03-01T17:07:05.107Z,649.79
2024-03-01T17:10:25.689Z,598.11
2024-03-01T17:13:36.959Z,566.48
2024-03-01T17:16:45.603Z,546.23
2024-03-01T17:19:53.310Z,552.17
2024-03-01T17:23:01.474Z,607.82
2024-03-01T17:26:08.785Z,617.64
2024-03-01T17:29:19.607Z,626.43
2024-03-01T17:32:26.893Z,621.83
2024-03-01T17:35:35.552Z,609.59
2024-03-01T17:38:42.872Z,711.24
2024-03-01T17:41:50.986Z,760.27
2024-03-01T17:45:00.931Z,638.84
2024-03-01T17:48:10.645Z,639.35
2024-03-01T17:51:18.149Z,644.19
2024-03-01T17:54:26.338Z,645.59
2024-03-01T17:57:33.672Z,663.94
2024-03-01T18:00:44.378Z,648.51
2024-03-01T18:03:51.632Z,636.98
2024-03-01T18:07:02.330Z,626.03
2024-03-01T18:10:12.494Z,614.70
2024-03-01T18:13:20.740Z,569.58
2024-03-01T18:16:30.593Z,600.06
2024-03-01T18:19:38.788Z,623.01
2024-03-01T18:22:46.158Z,644.56
2024-03-01T18:25:54.318Z,611.71
2024-03-01T18:29:01.710Z,588.46
2024-03-01T18:32:12.960Z,582.03
2024-03-01T18:35:20.222Z,577.02
2024-03-01T18:38:28.466Z,593.06
2024-03-01T18:41:35.705Z,603.72
2024-03-01T18:44:44.153Z,601.87
2024-03-01T18:47:54.674Z,613.13
2024-03-01T18:51:02.789Z,608.21
2024-03-01T18:54:15.347Z,595.64
2024-03-01T18:57:23.330Z,613.20
2024-03-01T19:00:33.766Z,605.43
2024-03-01T19:03:46.486Z,609.59
2024-03-01T19:06:53.790Z,615.04
2024-03-01T19:10:02.063Z,616.44
2024-03-01T19:13:10.210Z,618.52
2024-03-01T19:16:18.613Z,623.30
2024-03-01T19:19:28.538Z,622.49
2024-03-01T19:22:37.602Z,621.96
2024-03-01T19:25:47.577Z,610.83
2024-03-01T19:28:55.772Z,625.32
2024-03-01T19:32:03.105Z,603.57
2024-03-01T19:35:15.090Z,578.22
2024-03-01T19:38:23.530Z,566.96
2024-03-01T19:41:31.900Z,568.58
2024-03-01T19:44:39.462Z,590.55
2024-03-01T19:47:48.167Z,585.93
2024-03-01T19:50:58.367Z,562.27
2024-03-01T19:54:07.159Z,529.32
2024-03-01T19:57:14.610Z,532.92
2024-03-01T20:00:22.815Z,526.00
2024-03-01T20:03:30.089Z,538.62
2024-03-01T20:06:40.900Z,553.61
2024-03-01T20:09:48.692Z,570.01
2024-03-01T20:12:56.856Z,579.93
2024-03-01T20:16:19.170Z,584.22
2024-03-01T20:19:41.509Z,575.82
2024-03-01T20:22:52.274Z,582.04
2024-03-01T20:25:59.805Z,588.42
2024-03-01T20:29:07.952Z,569.76
2024-03-01T20:32:15.260Z,550.34
2024-03-01T20:35:23.288Z,532.77
2024-03-01T20:38:33.339Z,541.84
2024-03-01T20:41:41.498Z,550.52
2024-03-01T20:45:03.811Z,538.68
2024-03-01T20:48:26.036Z,547.98
2024-03-01T20:51:34.092Z,533.55
2024-03-01T20:54:44.031Z,541.99
2024-03-01T20:57:52.799Z,545.83
2024-03-01T21:01:01.802Z,524.69
2024-03-01T21:04:11.418Z,508.88
2024-03-01T21:07:19.032Z,523.15
2024-03-01T21:10:31.264Z,510.13
2024-03-01T21:13:38.555Z,522.13
2024-03-01T21:16:46.845Z,515.12
2024-03-01T21:20:11.722Z,515.93
2024-03-01T21:23:34.026Z,529.54
2024-03-01T21:26:44.783Z,529.19
2024-03-01T21:29:52.174Z,541.62
2024-03-01T21:33:02.477Z,550.32
2024-03-01T21:36:10.365Z,560.66
2024-03-01T21:39:18.575Z,570.21
2024-03-01T21:42:28.870Z,565.65
2024-03-01T21:45:37.085Z,567.00
2024-03-01T21:48:44.666Z,594.54
2024-03-01T21:51:52.823Z,619.23
2024-03-01T21:55:00.226Z,597.40
2024-03-01T21:58:11.143Z,545.99
2024-03-01T22:01:18.521Z,567.99
2024-03-01T22:04:26.634Z,567.92
2024-03-01T22:07:34.020Z,548.58
2024-03-01T22:10:42.220Z,537.29
2024-03-01T22:13:52.296Z,523.75
2024-03-01T22:17:00.572Z,510.52
2024-03-01T22:20:10.717Z,480.60
2024-03-01T22:23:19.668Z,474.21
2024-03-01T22:26:27.682Z,475.60
2024-03-01T22:29:39.052Z,472.25
2024-03-01T22:32:47.160Z,472.35
2024-03-01T22:35:55.528Z,473.91
2024-03-01T22:39:03.709Z,476.99
2024-03-01T22:42:13.651Z,477.31
2024-03-01T22:45:27.010Z,474.00
2024-03-01T22:48:36.925Z,485.99
2024-03-01T22:51:45.250Z,493.03
2024-03-01T22:54:56.858Z,489.38
2024-03-01T22:58:04.457Z,482.07
2024-03-01T23:01:27.034Z,483.79
2024-03-01T23:04:39.791Z,479.88
2024-03-01T23:07:48.212Z,482.37
2024-03-01T23:10:56.103Z,479.13
2024-03-01T23:14:05.178Z,530.58
2024-03-01T23:17:15.158Z,577.44
2024-03-01T23:20:37.337Z,494.21
2024-03-01T23:23:46.297Z,504.47
2024-03-01T23:26:58.461Z,495.18
2024-03-01T23:30:08.462Z,497.16
2024-03-01T23:33:18.489Z,493.22
2024-03-01T23:36:26.608Z,492.43
2024-03-01T23:39:34.087Z,489.06
2024-03-01T23:42:43.302Z,494.75
2024-03-01T23:45:50.745Z,485.35
2024-03-01T23:49:01.555Z,477.84
2024-03-01T23:52:09.561Z,481.42
2024-03-01T23:55:22.516Z,471.53
2024-03-01T23:58:30.036Z,467.49
